Time;durP1;ratioP1;P1;durP2;ratioP2;P2;SDS_P1;SDS_P2;PMS_P1;PMS_P2;Temp;Humidity;BMP_temperature;BMP_pressure;BME280_temperature;BME280_humidity;BME280_pressure;Samples;Min_cycle;Max_cycle;Signal;HPM_P1;HPM_P2
2022/11/06 00:00:34;;;;;;;;;2.00;2.00;;;;;21.05;57.33;101214.17;106328;1285;20394;-82
2022/11/06 00:03:01;;;;;;;;;4.50;4.00;;;;;21.05;57.59;101218.06;106306;1297;18348;-83
2022/11/06 00:08:13;;;;;;;;;2.00;2.00;;;;;21.04;57.37;101219.61;106314;1288;18062;-82
2022/11/06 00:10:41;;;;;;;;;2.00;2.00;;;;;21.05;57.51;101216.88;106352;1298;17873;-83
2022/11/06 00:13:08;;;;;;;;;2.00;2.00;;;;;21.04;57.36;101225.06;106275;1297;18595;-82
2022/11/06 00:15:36;;;;;;;;;3.00;3.00;;;;;21.05;57.30;101225.07;106282;1282;22071;-82
2022/11/06 00:18:03;;;;;;;;;4.00;2.00;;;;;21.03;57.38;101223.94;106082;1294;287443;-82
2022/11/06 00:20:30;;;;;;;;;2.00;2.00;;;;;21.04;57.29;101223.66;106255;1298;18478;-83
2022/11/06 00:22:58;;;;;;;;;2.00;2.00;;;;;21.04;57.43;101228.05;106318;1294;18755;-83
2022/11/06 00:25:25;;;;;;;;;;;;;;;21.03;57.26;101226.29;106307;1296;17893;-83
2022/11/06 00:27:52;;;;;;;;;4.00;2.00;;;;;21.05;57.28;101227.41;106590;1293;18493;-83
2022/11/06 00:30:20;;;;;;;;;;;;;;;21.04;57.44;101233.10;106640;1289;19261;-82
2022/11/06 00:32:47;;;;;;;;;5.00;4.00;;;;;21.04;57.16;101231.64;106414;1297;18487;-82
2022/11/06 00:35:14;;;;;;;;;4.00;2.00;;;;;21.04;57.15;101232.73;106317;1286;21575;-82
2022/11/06 00:37:42;;;;;;;;;2.00;2.00;;;;;21.04;57.15;101230.95;106365;1302;21585;-81
2022/11/06 00:40:09;;;;;;;;;4.00;4.00;;;;;21.05;57.31;101229.02;106258;1289;21672;-81
2022/11/06 00:42:37;;;;;;;;;2.00;2.00;;;;;21.04;57.30;101231.47;106308;1297;19662;-81
2022/11/06 00:45:04;;;;;;;;;2.00;2.00;;;;;21.03;57.20;101235.94;106274;1295;18097;-82
2022/11/06 00:47:31;;;;;;;;;2.00;2.00;;;;;21.02;57.20;101239.85;106352;1289;19159;-82
2022/11/06 00:49:59;;;;;;;;;4.00;4.00;;;;;21.03;57.11;101236.71;106340;1287;18585;-82
2022/11/06 00:52:26;;;;;;;;;4.00;2.00;;;;;21.03;57.17;101241.23;106361;1297;18100;-83
2022/11/06 00:54:53;;;;;;;;;2.00;2.00;;;;;21.03;57.20;101238.35;106291;1281;19726;-82
2022/11/06 00:57:21;;;;;;;;;3.00;3.00;;;;;21.02;57.10;101238.24;106324;1294;18863;-81
2022/11/06 00:59:48;;;;;;;;;2.00;2.00;;;;;21.00;57.04;101237.33;106329;1294;18069;-82
2022/11/06 01:02:18;;;;;;;;;2.00;2.00;;;;;21.01;57.09;101235.99;106295;1289;19658;-82
2022/11/06 01:04:46;;;;;;;;;2.00;2.00;;;;;21.01;57.15;101237.98;106341;1297;22212;-82
2022/11/06 01:07:13;;;;;;;;;2.00;2.00;;;;;21.02;56.88;101239.54;106279;1297;21405;-82
2022/11/06 01:09:40;;;;;;;;;3.00;3.00;;;;;21.01;57.07;101235.66;106308;1297;17808;-81
2022/11/06 01:12:08;;;;;;;;;4.00;2.00;;;;;21.00;57.15;101234.98;106329;1298;19886;-82
2022/11/06 01:14:35;;;;;;;;;2.00;2.00;;;;;21.01;57.04;101234.70;106318;1288;18096;-81
2022/11/06 01:17:03;;;;;;;;;2.00;2.00;;;;;21.01;56.95;101235.15;106361;1292;18239;-82
2022/11/06 01:19:30;;;;;;;;;3.00;3.00;;;;;21.01;57.03;101238.24;106354;1297;20036;-83
2022/11/06 01:21:57;;;;;;;;;4.00;2.00;;;;;21.01;56.95;101235.32;106328;1287;18056;-82
2022/11/06 01:24:25;;;;;;;;;1.50;1.50;;;;;21.00;56.97;101228.27;106277;1295;17768;-83
2022/11/06 01:26:52;;;;;;;;;2.00;2.00;;;;;21.00;56.81;101228.47;106289;1297;26085;-83
2022/11/06 01:29:19;;;;;;;;;2.00;2.00;;;;;21.00;56.72;101225.61;106271;1281;21957;-83
2022/11/06 01:31:48;;;;;;;;;4.00;2.00;;;;;20.99;56.72;101229.55;106348;1297;17737;-83
2022/11/06 01:34:16;;;;;;;;;5.00;2.00;;;;;21.00;56.72;101228.14;106283;1291;20199;-82
2022/11/06 01:36:43;;;;;;;;;2.00;2.00;;;;;21.00;56.69;101231.25;106314;1297;19037;-83
2022/11/06 01:39:10;;;;;;;;;5.00;4.00;;;;;20.99;56.84;101223.26;106331;1279;19284;-83
2022/11/06 01:41:38;;;;;;;;;2.00;2.00;;;;;21.01;56.66;101230.20;106335;1294;18503;-83
2022/11/06 01:44:05;;;;;;;;;4.33;2.00;;;;;20.99;56.86;101232.73;106276;1272;18754;-82
2022/11/06 01:46:32;;;;;;;;;2.00;2.00;;;;;20.99;56.71;101231.86;106358;1297;17789;-83
2022/11/06 01:49:00;;;;;;;;;2.00;2.00;;;;;20.99;56.72;101232.93;106264;1296;18649;-83
2022/11/06 01:51:27;;;;;;;;;3.33;2.00;;;;;20.99;56.68;101231.11;106347;1281;18101;-83
2022/11/06 01:53:54;;;;;;;;;4.50;3.00;;;;;21.00;56.54;101229.97;106322;1281;20475;-83
2022/11/06 01:56:22;;;;;;;;;2.00;2.00;;;;;20.99;56.51;101230.23;106339;1281;20442;-83
2022/11/06 01:58:49;;;;;;;;;4.00;2.00;;;;;20.99;56.61;101229.89;106344;1296;18331;-83
2022/11/06 02:01:16;;;;;;;;;1.00;1.00;;;;;20.99;56.60;101230.44;106311;1298;17796;-83
2022/11/06 02:03:44;;;;;;;;;2.00;2.00;;;;;20.99;56.67;101232.44;106293;1297;18502;-83
2022/11/06 02:06:11;;;;;;;;;2.00;2.00;;;;;20.99;56.69;101236.25;106332;1295;18106;-82
2022/11/06 02:08:39;;;;;;;;;2.00;2.00;;;;;20.98;56.49;101231.56;106292;1297;17755;-82
2022/11/06 02:11:06;;;;;;;;;4.00;4.00;;;;;20.96;56.51;101234.85;106350;1294;18494;-83
2022/11/06 02:13:34;;;;;;;;;2.00;2.00;;;;;20.96;56.39;101232.89;106313;1295;21534;-82
2022/11/06 02:16:01;;;;;;;;;2.00;2.00;;;;;20.98;56.45;101235.80;106309;1289;17932;-82
2022/11/06 02:18:28;;;;;;;;;2.00;2.00;;;;;20.98;56.39;101235.27;106310;1287;18476;-82
2022/11/06 02:20:56;;;;;;;;;4.00;4.00;;;;;20.98;56.33;101232.13;106362;1294;18065;-82
2022/11/06 02:23:23;;;;;;;;;2.00;2.00;;;;;20.97;56.59;101235.20;106322;1288;19400;-83
2022/11/06 02:25:50;;;;;;;;;3.00;2.00;;;;;20.96;56.57;101234.18;106310;1289;18723;-82
2022/11/06 02:28:18;;;;;;;;;2.00;2.00;;;;;20.97;56.44;101234.95;106354;1295;19576;-82
2022/11/06 02:30:45;;;;;;;;;2.00;2.00;;;;;20.97;56.47;101237.30;106163;1297;19668;-82
2022/11/06 02:33:13;;;;;;;;;2.00;2.00;;;;;20.96;56.33;101237.48;106303;1272;21802;-82
2022/11/06 02:35:40;;;;;;;;;5.00;4.00;;;;;20.96;56.52;101238.23;106357;1288;21201;-82
2022/11/06 02:38:07;;;;;;;;;2.00;2.00;;;;;20.95;56.45;101240.79;106656;1286;19393;-83
2022/11/06 02:40:35;;;;;;;;;2.00;2.00;;;;;20.97;56.31;101244.77;106572;1301;18489;-83
2022/11/06 02:43:02;;;;;;;;;4.00;2.00;;;;;20.97;56.22;101241.53;106456;1288;18117;-83
2022/11/06 02:45:30;;;;;;;;;2.00;2.00;;;;;20.97;56.22;101239.52;106405;1297;17764;-82
2022/11/06 02:47:58;;;;;;;;;2.00;2.00;;;;;20.97;56.46;101238.30;106376;1286;19644;-82
2022/11/06 02:50:25;;;;;;;;;2.00;2.00;;;;;20.97;56.34;101243.16;106359;1288;20396;-83
2022/11/06 02:52:52;;;;;;;;;2.00;2.00;;;;;20.97;56.34;101244.56;106370;1297;22063;-83
2022/11/06 02:55:20;;;;;;;;;2.00;2.00;;;;;20.96;56.31;101241.60;106236;1282;21239;-83
2022/11/06 02:57:47;;;;;;;;;2.00;2.00;;;;;20.96;56.34;101243.44;106320;1298;18106;-82
2022/11/06 03:00:14;;;;;;;;;3.00;3.00;;;;;20.96;56.29;101241.63;106318;1289;18065;-82
2022/11/06 03:02:42;;;;;;;;;4.00;4.00;;;;;20.96;56.31;101246.73;106342;1303;22206;-83
2022/11/06 03:05:09;;;;;;;;;2.00;2.00;;;;;20.95;56.05;101248.45;106329;1294;18213;-82
2022/11/06 03:07:36;;;;;;;;;4.00;4.00;;;;;20.94;56.32;101245.45;106340;1297;17788;-82
2022/11/06 03:10:04;;;;;;;;;3.00;2.00;;;;;20.95;56.28;101247.98;106328;1279;20426;-83
2022/11/06 03:12:31;;;;;;;;;2.00;2.00;;;;;20.95;56.17;101253.53;106340;1295;20067;-82
2022/11/06 03:14:58;;;;;;;;;4.00;2.00;;;;;20.95;56.19;101255.70;106289;1297;21211;-82
2022/11/06 03:17:26;;;;;;;;;2.00;2.00;;;;;20.95;56.20;101256.32;106280;1297;19230;-82
2022/11/06 03:19:53;;;;;;;;;4.00;4.00;;;;;20.95;56.24;101257.38;106284;1297;18093;-83
2022/11/06 03:22:21;;;;;;;;;2.00;2.00;;;;;20.96;56.07;101256.76;106302;1302;22151;-82
2022/11/06 03:24:48;;;;;;;;;2.00;2.00;;;;;20.94;56.06;101256.73;106301;1297;18993;-82
2022/11/06 03:27:15;;;;;;;;;2.00;2.00;;;;;20.93;56.24;101254.45;106278;1272;21630;-83
2022/11/06 03:29:43;;;;;;;;;2.00;2.00;;;;;20.94;56.04;101252.61;106287;1297;22647;-84
2022/11/06 03:32:10;;;;;;;;;1.00;1.00;;;;;20.94;55.95;101257.34;106275;1295;24871;-82
2022/11/06 03:34:37;;;;;;;;;2.00;2.00;;;;;20.93;56.13;101254.30;106293;1288;20317;-82
2022/11/06 03:37:05;;;;;;;;;4.00;3.00;;;;;20.93;56.14;101246.17;106271;1286;17745;-83
2022/11/06 03:39:32;;;;;;;;;2.00;2.00;;;;;20.92;56.11;101242.77;106267;1295;18479;-83
2022/11/06 03:41:59;;;;;;;;;2.00;2.00;;;;;20.92;56.08;101244.94;106285;1280;20478;-82
2022/11/06 03:44:27;;;;;;;;;2.00;2.00;;;;;20.93;56.12;101242.51;106269;1297;20273;-82
2022/11/06 03:46:54;;;;;;;;;2.00;2.00;;;;;20.93;56.00;101241.83;106322;1296;18480;-82
2022/11/06 03:49:22;;;;;;;;;2.00;2.00;;;;;20.93;56.04;101241.40;106312;1289;19171;-82
2022/11/06 03:51:49;;;;;;;;;2.00;2.00;;;;;20.93;56.01;101239.21;106237;1288;21098;-83
2022/11/06 03:54:16;;;;;;;;;2.00;2.00;;;;;20.92;55.94;101242.65;106284;1297;20106;-83
2022/11/06 03:56:44;;;;;;;;;2.00;2.00;;;;;20.93;55.96;101242.92;106275;1291;22083;-82
2022/11/06 03:59:11;;;;;;;;;2.00;2.00;;;;;20.92;55.99;101245.12;106267;1297;21975;-82
2022/11/06 04:01:38;;;;;;;;;2.00;2.00;;;;;20.92;55.96;101248.40;106342;1297;21940;-82
2022/11/06 04:04:06;;;;;;;;;4.00;4.00;;;;;20.93;55.97;101254.48;106354;1295;18116;-83
2022/11/06 04:06:33;;;;;;;;;4.00;4.00;;;;;20.93;56.04;101249.80;106298;1280;21862;-82
2022/11/06 04:14:31;;;;;;;;;2.00;2.00;;;;;20.92;55.78;101249.29;106304;1289;17779;-82
2022/11/06 04:16:58;;;;;;;;;2.00;2.00;;;;;20.92;55.74;101246.08;106375;1297;18639;-82
2022/11/06 04:19:26;;;;;;;;;2.00;2.00;;;;;20.92;55.65;101250.95;106348;1281;19445;-83
2022/11/06 04:21:53;;;;;;;;;4.00;2.00;;;;;20.92;55.78;101249.34;106360;1294;17792;-83
2022/11/06 04:27:06;;;;;;;;;2.00;2.00;;;;;20.91;55.75;101248.39;106295;1297;18123;-82
2022/11/06 04:29:33;;;;;;;;;2.00;2.00;;;;;20.92;55.86;101249.17;106269;1281;21620;-83
2022/11/06 04:32:00;;;;;;;;;2.00;2.00;;;;;20.91;55.69;101249.96;106314;1297;18526;-82
2022/11/06 04:34:28;;;;;;;;;2.00;2.00;;;;;20.92;55.75;101252.45;106314;1298;20877;-82
2022/11/06 04:36:55;;;;;;;;;2.00;2.00;;;;;20.91;55.78;101254.19;106338;1280;17769;-83
2022/11/06 04:39:22;;;;;;;;;2.00;2.00;;;;;20.90;55.85;101254.46;106338;1295;19377;-83
2022/11/06 04:41:50;;;;;;;;;2.00;2.00;;;;;20.91;55.81;101256.19;106458;1298;18148;-83
2022/11/06 04:44:17;;;;;;;;;2.00;2.00;;;;;20.91;55.81;101252.92;106525;1295;22027;-83
2022/11/06 04:46:44;;;;;;;;;2.00;2.00;;;;;20.89;55.72;101247.27;106584;1296;18674;-83
2022/11/06 04:49:12;;;;;;;;;4.00;2.00;;;;;20.91;55.60;101251.30;106373;1295;18086;-83
2022/11/06 04:51:39;;;;;;;;;2.00;2.00;;;;;20.90;55.80;101256.06;106249;1279;19152;-82
2022/11/06 04:54:06;;;;;;;;;4.00;2.00;;;;;20.89;55.71;101256.00;106268;1272;20327;-83
2022/11/06 04:56:34;;;;;;;;;4.00;2.00;;;;;20.89;55.69;101255.11;106338;1294;18798;-82
2022/11/06 04:59:01;;;;;;;;;2.00;2.00;;;;;20.89;55.71;101256.00;106298;1297;17779;-82
2022/11/06 05:01:28;;;;;;;;;4.00;2.00;;;;;20.89;55.62;101255.14;106393;1297;20074;-82
2022/11/06 05:03:56;;;;;;;;;;;;;;;20.89;55.55;101254.73;106347;1289;18133;-83
2022/11/06 05:06:23;;;;;;;;;2.00;2.00;;;;;20.88;55.46;101252.69;106344;1297;17564;-82
2022/11/06 05:08:51;;;;;;;;;4.00;2.00;;;;;20.88;55.46;101251.40;106377;1279;18836;-82
2022/11/06 05:11:18;;;;;;;;;2.00;2.00;;;;;20.88;55.48;101251.43;106368;1289;18556;-82
2022/11/06 05:13:45;;;;;;;;;4.00;2.00;;;;;20.88;55.66;101255.77;106424;1272;18432;-83
2022/11/06 05:16:13;;;;;;;;;1.00;1.00;;;;;20.88;55.40;101250.68;106281;1288;19915;-82
2022/11/06 05:18:40;;;;;;;;;2.00;2.00;;;;;20.88;55.45;101246.77;106362;1295;18771;-83
2022/11/06 05:23:53;;;;;;;;;2.00;2.00;;;;;20.88;55.54;101242.91;106250;1297;18489;-83
2022/11/06 05:26:20;;;;;;;;;1.50;1.50;;;;;20.88;55.71;101242.91;106327;1286;20551;-82
2022/11/06 05:28:48;;;;;;;;;2.00;2.00;;;;;20.89;55.47;101245.54;106391;1294;17794;-84
2022/11/06 05:31:15;;;;;;;;;2.00;2.00;;;;;20.89;55.44;101245.02;106468;1280;19051;-83
2022/11/06 05:33:42;;;;;;;;;2.00;2.00;;;;;20.90;55.51;101252.34;106335;1288;18133;-82
2022/11/06 05:36:10;;;;;;;;;4.00;4.00;;;;;20.88;55.35;101249.25;106339;1297;17840;-82
2022/11/06 05:38:37;;;;;;;;;2.00;2.00;;;;;20.88;55.38;101248.52;106330;1288;19988;-83
2022/11/06 05:41:04;;;;;;;;;2.00;2.00;;;;;20.88;55.52;101250.14;106329;1289;18133;-82
2022/11/06 05:43:32;;;;;;;;;3.00;2.00;;;;;20.86;55.50;101252.67;106398;1297;17743;-83
2022/11/06 05:46:00;;;;;;;;;2.00;2.00;;;;;20.87;55.51;101253.38;106356;1289;19066;-83
2022/11/06 05:48:27;;;;;;;;;4.00;2.00;;;;;20.87;55.24;101255.16;106354;1285;21195;-82
2022/11/06 05:50:55;;;;;;;;;2.00;2.00;;;;;20.87;55.39;101252.78;106380;1288;18071;-82
2022/11/06 05:53:22;;;;;;;;;2.00;2.00;;;;;20.87;55.39;101255.88;106306;1297;18513;-85
2022/11/06 05:55:49;;;;;;;;;4.00;4.00;;;;;20.88;55.46;101259.84;106402;1288;20059;-83
2022/11/06 05:58:17;;;;;;;;;4.00;4.00;;;;;20.87;55.35;101258.27;106345;1297;17899;-82
2022/11/06 06:00:44;;;;;;;;;4.00;4.00;;;;;20.89;55.31;101258.08;106295;1294;18505;-83
2022/11/06 06:03:11;;;;;;;;;;;;;;;20.90;55.05;101256.27;106351;1295;24568;-83
2022/11/06 06:05:39;;;;;;;;;2.00;2.00;;;;;20.91;54.91;101251.13;106365;1297;17533;-83
2022/11/06 06:08:06;;;;;;;;;2.00;2.00;;;;;20.92;55.02;101257.87;106324;1282;18490;-83
2022/11/06 06:10:33;;;;;;;;;2.00;2.00;;;;;20.93;55.08;101252.88;106388;1281;18095;-84
2022/11/06 06:13:01;;;;;;;;;2.00;2.00;;;;;20.94;55.36;101257.31;106300;1286;17863;-83
2022/11/06 06:15:28;;;;;;;;;2.00;2.00;;;;;20.94;55.33;101266.34;106331;1281;19933;-82
2022/11/06 06:17:55;;;;;;;;;3.00;2.00;;;;;20.95;55.45;101262.66;106386;1279;18784;-82
2022/11/06 06:20:23;;;;;;;;;2.00;2.00;;;;;20.94;55.40;101260.58;106345;1281;17777;-83
2022/11/06 06:22:50;;;;;;;;;5.00;2.00;;;;;20.95;55.54;101265.92;106358;1279;20080;-83
2022/11/06 06:25:17;;;;;;;;;2.00;2.00;;;;;20.95;55.75;101267.89;106336;1279;21058;-84
2022/11/06 06:27:45;;;;;;;;;2.00;2.00;;;;;20.96;55.54;101269.30;106320;1281;18030;-83
2022/11/06 06:30:12;;;;;;;;;1.00;1.00;;;;;20.96;55.63;101272.33;106349;1286;18577;-83
2022/11/06 06:32:39;;;;;;;;;3.00;3.00;;;;;20.96;55.63;101272.88;106351;1286;18107;-84
2022/11/06 06:35:07;;;;;;;;;2.00;2.00;;;;;20.97;55.33;101269.71;106343;1297;17781;-84
2022/11/06 06:37:34;;;;;;;;;2.00;2.00;;;;;20.97;55.55;101273.35;106393;1279;18936;-82
2022/11/06 06:40:02;;;;;;;;;1.00;1.00;;;;;20.97;55.52;101270.08;106291;1287;20117;-83
2022/11/06 06:42:29;;;;;;;;;4.00;2.00;;;;;20.97;55.52;101276.79;106308;1286;22911;-83
2022/11/06 06:44:57;;;;;;;;;2.00;2.00;;;;;20.98;55.63;101280.88;106351;1295;18626;-82
2022/11/06 06:47:24;;;;;;;;;2.00;2.00;;;;;20.94;55.74;101285.67;106287;1278;18111;-83
2022/11/06 06:49:52;;;;;;;;;2.00;2.00;;;;;20.94;55.46;101285.44;106343;1297;17742;-83
2022/11/06 06:52:19;;;;;;;;;3.33;2.00;;;;;20.97;55.51;101289.15;106364;1295;20189;-82
2022/11/06 06:54:46;;;;;;;;;2.00;2.00;;;;;20.98;55.46;101287.91;106277;1281;19434;-82
2022/11/06 06:57:14;;;;;;;;;2.00;2.00;;;;;20.97;55.60;101287.69;106357;1288;22089;-82
2022/11/06 06:59:41;;;;;;;;;2.00;2.00;;;;;20.98;55.56;101287.42;106302;1289;20201;-82
2022/11/06 07:02:08;;;;;;;;;2.00;2.00;;;;;20.99;55.50;101288.90;106331;1297;20966;-80
2022/11/06 07:04:36;;;;;;;;;5.00;4.00;;;;;20.99;55.53;101288.89;106378;1288;17776;-81
2022/11/06 07:07:04;;;;;;;;;5.00;5.00;;;;;20.95;55.32;101285.04;106346;1299;18530;-81
2022/11/06 07:09:31;;;;;;;;;;;;;;;20.95;55.28;101287.92;106351;1297;18084;-81
2022/11/06 07:11:58;;;;;;;;;4.50;4.00;;;;;20.97;55.03;101293.14;106313;1300;17487;-81
2022/11/06 07:14:26;;;;;;;;;2.00;2.00;;;;;20.96;55.10;101293.04;106335;1290;20302;-81
2022/11/06 07:16:53;;;;;;;;;2.00;2.00;;;;;20.97;55.27;101298.21;106364;1281;18220;-81
2022/11/06 07:19:20;;;;;;;;;4.00;4.00;;;;;21.01;55.25;101297.28;106330;1278;24220;-81
2022/11/06 07:21:48;;;;;;;;;2.00;2.00;;;;;21.06;55.02;101298.33;106344;1280;21544;-81
2022/11/06 07:24:16;;;;;;;;;2.00;2.00;;;;;21.11;54.92;101300.17;106334;1279;19073;-81
2022/11/06 07:26:44;;;;;;;;;2.00;2.00;;;;;21.13;54.91;101297.77;106353;1279;17757;-81
2022/11/06 07:29:11;;;;;;;;;2.00;2.00;;;;;21.18;54.75;101298.12;106327;1281;18502;-81
2022/11/06 07:31:39;;;;;;;;;2.00;2.00;;;;;21.21;54.78;101297.81;106347;1286;18101;-81
2022/11/06 07:34:06;;;;;;;;;5.00;4.00;;;;;21.25;54.70;101296.34;106317;1297;17763;-81
2022/11/06 07:36:33;;;;;;;;;6.00;5.00;;;;;21.28;54.50;101305.23;106320;1289;21349;-82
2022/11/06 07:39:01;;;;;;;;;4.00;4.00;;;;;21.29;54.43;101308.20;106256;1297;18087;-81
2022/11/06 07:41:28;;;;;;;;;2.00;2.00;;;;;21.29;54.36;101306.55;106375;1297;19699;-81
2022/11/06 07:43:55;;;;;;;;;5.00;4.00;;;;;21.33;54.40;101307.62;106296;1288;21123;-82
2022/11/06 07:46:23;;;;;;;;;4.00;4.00;;;;;21.35;54.41;101305.73;106315;1281;19639;-86
2022/11/06 07:48:50;;;;;;;;;4.50;4.00;;;;;21.38;54.28;101311.66;106323;1280;21539;-81
2022/11/06 07:51:17;;;;;;;;;4.00;4.00;;;;;21.39;54.36;101309.16;106319;1294;27860;-80
2022/11/06 07:53:45;;;;;;;;;5.00;5.00;;;;;21.46;54.23;101308.00;106287;1286;19752;-81
2022/11/06 07:56:12;;;;;;;;;;;;;;;21.50;54.16;101305.92;106316;1281;18710;-80
2022/11/06 07:58:39;;;;;;;;;4.00;4.00;;;;;21.54;54.31;101308.26;106379;1294;20104;-82
2022/11/06 08:01:07;;;;;;;;;6.00;6.00;;;;;21.55;54.15;101306.58;106231;1288;18735;-82
2022/11/06 08:03:34;;;;;;;;;4.00;4.00;;;;;21.61;54.20;101306.73;106245;1285;20195;-83
2022/11/06 08:06:02;;;;;;;;;3.00;3.00;;;;;21.64;54.21;101310.38;106281;1281;19023;-84
2022/11/06 08:08:30;;;;;;;;;4.00;4.00;;;;;21.64;54.65;101309.72;106258;1288;19913;-81
2022/11/06 08:10:57;;;;;;;;;5.50;5.00;;;;;21.68;54.52;101312.32;106252;1297;18005;-82
2022/11/06 08:13:26;;;;;;;;;4.00;4.00;;;;;21.72;54.37;101313.77;106277;1279;21759;-81
2022/11/06 08:15:53;;;;;;;;;4.50;4.50;;;;;21.72;54.35;101310.21;106279;1286;18992;-81
2022/11/06 08:18:20;;;;;;;;;5.00;5.00;;;;;21.75;54.20;101310.85;106292;1295;17821;-83
2022/11/06 08:20:48;;;;;;;;;4.00;4.00;;;;;21.72;54.26;101306.20;106289;1282;20404;-80
2022/11/06 08:23:15;;;;;;;;;6.00;5.00;;;;;21.73;54.31;101303.02;106328;1287;18054;-83
2022/11/06 08:25:42;;;;;;;;;5.00;5.00;;;;;21.75;54.54;101305.53;106407;1294;18163;-84
2022/11/06 08:28:10;;;;;;;;;4.00;4.00;;;;;21.78;54.51;101299.13;106234;1288;18474;-83
2022/11/06 08:30:37;;;;;;;;;5.00;5.00;;;;;21.82;54.40;101296.26;106289;1282;18107;-83
2022/11/06 08:33:05;;;;;;;;;6.00;6.00;;;;;21.84;54.49;101298.35;106265;1287;25534;-83
2022/11/06 08:35:32;;;;;;;;;4.00;4.00;;;;;21.85;54.48;101302.44;106234;1286;21223;-83
2022/11/06 08:37:59;;;;;;;;;4.00;4.00;;;;;21.84;54.80;101301.31;106208;1279;23072;-84
2022/11/06 08:40:27;;;;;;;;;20.00;16.50;;;;;21.82;55.08;101301.86;106224;1286;21485;-83
2022/11/06 08:42:54;;;;;;;;;61.00;47.00;;;;;21.82;54.95;101305.10;106209;1289;18474;-83
2022/11/06 08:45:21;;;;;;;;;75.00;55.00;;;;;21.79;55.02;101305.61;106155;1281;18548;-83
2022/11/06 08:47:49;;;;;;;;;86.00;63.00;;;;;21.78;54.82;101304.28;106153;1282;22647;-84
2022/11/06 08:50:16;;;;;;;;;;;;;;;21.79;54.95;101306.77;106174;1272;24582;-85
2022/11/06 08:52:43;;;;;;;;;127.00;94.00;;;;;21.80;54.79;101305.46;106219;1282;22243;-82
2022/11/06 08:55:11;;;;;;;;;;;;;;;21.80;54.93;101306.63;106209;1280;18428;-83
2022/11/06 08:57:38;;;;;;;;;;;;;;;21.77;55.25;101297.11;106252;1287;18497;-84
2022/11/06 09:00:05;;;;;;;;;90.00;62.00;;;;;21.78;55.26;101298.27;106279;1272;17762;-85
2022/11/06 09:02:33;;;;;;;;;84.00;60.00;;;;;21.79;55.11;101299.57;106255;1289;17998;-83
2022/11/06 09:05:00;;;;;;;;;74.00;54.50;;;;;21.81;55.27;101299.80;106202;1289;18459;-84
2022/11/06 09:07:28;;;;;;;;;65.50;48.00;;;;;21.81;55.34;101300.63;106154;1297;18470;-85
2022/11/06 09:09:55;;;;;;;;;61.00;46.00;;;;;21.82;55.40;101298.92;106223;1286;18031;-84
2022/11/06 09:12:22;;;;;;;;;46.50;40.00;;;;;21.81;55.51;101296.87;106285;1282;21195;-84
2022/11/06 09:14:50;;;;;;;;;37.50;33.50;;;;;21.82;55.49;101298.95;106339;1280;20227;-84
2022/11/06 09:17:22;;;;;;;;;40.00;27.50;;;;;21.90;55.64;101298.58;106295;1286;19496;-82
2022/11/06 09:19:49;;;;;;;;;37.00;28.00;;;;;22.00;55.36;101296.02;106359;1282;20845;-82
2022/11/06 09:22:16;;;;;;;;;29.50;25.00;;;;;22.01;55.13;101295.91;106308;1282;22120;-81
2022/11/06 09:24:44;;;;;;;;;29.00;21.00;;;;;21.98;55.02;101293.73;106337;1288;18582;-81
2022/11/06 09:27:11;;;;;;;;;20.00;18.00;;;;;21.92;55.03;101296.13;106262;1281;19004;-81
2022/11/06 09:29:42;;;;;;;;;18.00;14.00;;;;;21.86;54.96;101288.62;106330;1294;18448;-80
2022/11/06 09:32:10;;;;;;;;;16.00;13.00;;;;;21.83;55.15;101294.31;106229;1297;18006;-80
2022/11/06 09:34:37;;;;;;;;;16.00;13.00;;;;;21.80;55.11;101296.39;106296;1286;18490;-80
2022/11/06 09:37:04;;;;;;;;;18.00;16.00;;;;;21.78;55.22;101296.52;106268;1295;18460;-81
2022/11/06 09:39:32;;;;;;;;;20.00;13.00;;;;;21.76;55.08;101297.02;106329;1297;18109;-82
2022/11/06 09:41:59;;;;;;;;;11.00;10.33;;;;;21.76;54.95;101293.40;106341;1279;20716;-82
2022/11/06 09:44:26;;;;;;;;;6.00;6.00;;;;;21.74;55.17;101292.88;106340;1294;22060;-82
2022/11/06 09:46:54;;;;;;;;;13.00;9.00;;;;;21.73;55.14;101296.29;106372;1286;17785;-82
2022/11/06 09:49:21;;;;;;;;;9.00;9.00;;;;;21.72;55.12;101296.58;106326;1297;18490;-81
2022/11/06 09:51:48;;;;;;;;;;;;;;;21.72;54.94;101297.39;106366;1289;18541;-82
2022/11/06 09:54:16;;;;;;;;;10.00;9.00;;;;;21.70;54.97;101291.35;106298;1295;20341;-82
2022/11/06 09:56:43;;;;;;;;;6.00;6.00;;;;;21.69;54.89;101291.10;106315;1297;18517;-81
2022/11/06 09:59:10;;;;;;;;;9.00;8.00;;;;;21.67;54.76;101286.27;106287;1281;21757;-81
2022/11/06 10:01:38;;;;;;;;;9.00;8.00;;;;;21.67;54.82;101293.16;106305;1292;19588;-82
2022/11/06 10:04:05;;;;;;;;;9.50;8.00;;;;;21.66;54.71;101294.14;106269;1295;18979;-82
2022/11/06 10:06:33;;;;;;;;;8.00;6.00;;;;;21.65;54.57;101292.46;106269;1282;21666;-81
2022/11/06 10:09:00;;;;;;;;;10.00;8.00;;;;;21.64;54.72;101294.72;106329;1288;19558;-82
2022/11/06 10:11:27;;;;;;;;;8.00;6.00;;;;;21.63;54.55;101292.86;106274;1289;20041;-81
2022/11/06 10:13:55;;;;;;;;;;;;;;;21.63;54.64;101293.08;106315;1298;18502;-81
2022/11/06 10:16:22;;;;;;;;;6.00;5.00;;;;;21.62;54.85;101288.78;106316;1279;17580;-82
2022/11/06 10:18:49;;;;;;;;;6.00;4.50;;;;;21.60;54.70;101281.90;106313;1272;18501;-82
2022/11/06 10:21:17;;;;;;;;;6.00;5.00;;;;;21.59;54.58;101279.63;106321;1281;19878;-81
2022/11/06 10:23:44;;;;;;;;;12.00;9.00;;;;;21.59;54.62;101281.48;106332;1281;19362;-82
2022/11/06 10:26:11;;;;;;;;;5.00;5.00;;;;;21.59;54.59;101280.61;106317;1279;18662;-82
2022/11/06 10:28:39;;;;;;;;;6.00;5.00;;;;;21.57;54.58;101275.61;106298;1279;21644;-82
2022/11/06 10:31:06;;;;;;;;;5.00;5.00;;;;;21.57;54.87;101274.80;106490;1281;19170;-84
2022/11/06 10:33:33;;;;;;;;;4.00;4.00;;;;;21.56;54.75;101271.80;106287;1273;18470;-81
2022/11/06 10:36:01;;;;;;;;;4.00;2.00;;;;;21.55;54.71;101273.50;106327;1280;18123;-82
2022/11/06 10:38:28;;;;;;;;;6.00;5.00;;;;;21.55;54.84;101274.63;106316;1297;20573;-82
2022/11/06 10:40:56;;;;;;;;;4.00;4.00;;;;;21.54;54.98;101268.77;106369;1295;19994;-82
2022/11/06 10:43:23;;;;;;;;;5.00;4.00;;;;;21.54;55.15;101263.31;106322;1279;19783;-83
2022/11/06 10:45:51;;;;;;;;;6.00;4.00;;;;;21.57;55.07;101264.09;106347;1280;18929;-83
2022/11/06 10:48:18;;;;;;;;;5.00;5.00;;;;;21.59;55.13;101258.58;106290;1297;22795;-82
2022/11/06 10:50:46;;;;;;;;;4.50;4.00;;;;;21.59;55.25;101253.55;106288;1288;18073;-82
2022/11/06 10:53:13;;;;;;;;;4.00;4.00;;;;;21.62;55.46;101247.73;106306;1298;17920;-83
2022/11/06 10:55:40;;;;;;;;;6.00;5.00;;;;;21.62;55.40;101244.42;106344;1278;19961;-83
2022/11/06 10:58:08;;;;;;;;;5.00;4.00;;;;;21.62;55.46;101245.55;106314;1278;22034;-83
2022/11/06 11:00:35;;;;;;;;;4.00;4.00;;;;;21.63;55.52;101243.45;106302;1286;22746;-83
2022/11/06 11:03:03;;;;;;;;;5.00;4.50;;;;;21.63;55.59;101242.30;106343;1294;18462;-81
2022/11/06 11:05:30;;;;;;;;;4.00;4.00;;;;;21.64;55.58;101244.20;106334;1297;18080;-81
2022/11/06 11:07:58;;;;;;;;;;;;;;;21.63;55.70;101239.05;106340;1288;19289;-81
2022/11/06 11:10:25;;;;;;;;;5.00;4.00;;;;;21.63;55.29;101235.55;106284;1295;19328;-82
2022/11/06 11:12:52;;;;;;;;;4.50;4.50;;;;;21.63;55.38;101230.51;106303;1286;17781;-80
2022/11/06 11:15:20;;;;;;;;;4.00;4.00;;;;;21.63;55.48;101220.71;106271;1281;18017;-81
2022/11/06 11:17:47;;;;;;;;;4.50;4.50;;;;;21.61;55.55;101221.98;106295;1282;18474;-81
2022/11/06 11:20:14;;;;;;;;;4.50;4.00;;;;;21.61;55.43;101215.61;106262;1296;20960;-82
2022/11/06 11:22:42;;;;;;;;;4.00;4.00;;;;;21.60;55.49;101210.98;106272;1287;17805;-82
2022/11/06 11:25:09;;;;;;;;;4.00;4.00;;;;;21.61;55.42;101208.21;106275;1288;20142;-83
2022/11/06 11:27:37;;;;;;;;;4.00;4.00;;;;;21.61;55.26;101206.00;106326;1294;18278;-81
2022/11/06 11:30:04;;;;;;;;;4.00;4.00;;;;;21.61;55.33;101203.98;106298;1298;18414;-81
2022/11/06 11:32:31;;;;;;;;;4.00;4.00;;;;;21.59;55.22;101201.43;106282;1298;21482;-82